N691PS KPVU-KOGD
Flight info
| Callsign | N691PS |
|---|---|
| Flight time | 0h 48m |
| Altitude | 10000 |
| Route | PROVO4 FFU V21 TCH JEMKU OGD/N0111F070 |
| Aircraft | C172/L-SFG/C |
Departure
| Time | 2026-04-19 05:09 |
|---|---|
| Airport | Provo Municipal Airport (KPVU) |
Arrival
| Time | 2026-04-19 05:58 |
|---|---|
| Airport | Ogden Hinckley Airport (KOGD) |
| Time | Latitude | Longitude | Altitude | Speed | Heading |
|---|---|---|---|---|---|
| 2026-04-19 04:48 | 40.22212 | -111.71953 | 4496 ft | 0 kts | 125° |
| 2026-04-19 04:57 | 40.22211 | -111.71949 | 4496 ft | 4 kts | 92° |
| 2026-04-19 04:57 | 40.22228 | -111.71936 | 4497 ft | 0 kts | 292° |
| 2026-04-19 05:02 | 40.22229 | -111.71954 | 4496 ft | 8 kts | 251° |
| 2026-04-19 05:03 | 40.22162 | -111.71988 | 4498 ft | 10 kts | 191° |
| 2026-04-19 05:03 | 40.22099 | -111.72005 | 4496 ft | 8 kts | 191° |
| 2026-04-19 05:03 | 40.22042 | -111.72022 | 4496 ft | 11 kts | 192° |
| 2026-04-19 05:03 | 40.21958 | -111.72045 | 4499 ft | 13 kts | 194° |
| 2026-04-19 05:04 | 40.21886 | -111.72024 | 4499 ft | 10 kts | 144° |
| 2026-04-19 05:04 | 40.21838 | -111.71980 | 4496 ft | 8 kts | 146° |
| 2026-04-19 05:04 | 40.21774 | -111.71923 | 4496 ft | 14 kts | 146° |
| 2026-04-19 05:04 | 40.21678 | -111.71839 | 4497 ft | 19 kts | 146° |
| 2026-04-19 05:05 | 40.21561 | -111.71736 | 4495 ft | 19 kts | 146° |
| 2026-04-19 05:05 | 40.21457 | -111.71642 | 4495 ft | 16 kts | 146° |
| 2026-04-19 05:05 | 40.21373 | -111.71567 | 4497 ft | 13 kts | 146° |
| 2026-04-19 05:05 | 40.21303 | -111.71505 | 4495 ft | 13 kts | 145° |
| 2026-04-19 05:06 | 40.21212 | -111.71426 | 4494 ft | 16 kts | 147° |
| 2026-04-19 05:06 | 40.21145 | -111.71394 | 4493 ft | 3 kts | 201° |
| 2026-04-19 05:06 | 40.21124 | -111.71420 | 4494 ft | 0 kts | 239° |
| 2026-04-19 05:07 | 40.21099 | -111.71471 | 4493 ft | 22 kts | 238° |
| 2026-04-19 05:07 | 40.21155 | -111.71596 | 4496 ft | 30 kts | 327° |
| 2026-04-19 05:07 | 40.21432 | -111.71839 | 4495 ft | 61 kts | 325° |
| 2026-04-19 05:08 | 40.21801 | -111.72171 | 4526 ft | 69 kts | 326° |
| 2026-04-19 05:08 | 40.22625 | -111.72920 | 4636 ft | 71 kts | 326° |
| 2026-04-19 05:08 | 40.23040 | -111.73269 | 4707 ft | 71 kts | 327° |
| 2026-04-19 05:09 | 40.23456 | -111.73621 | 4776 ft | 73 kts | 326° |
| 2026-04-19 05:09 | 40.23956 | -111.74038 | 4867 ft | 86 kts | 327° |
| 2026-04-19 05:09 | 40.24438 | -111.74454 | 5124 ft | 85 kts | 328° |
| 2026-04-19 05:09 | 40.24933 | -111.74898 | 5317 ft | 87 kts | 328° |
| 2026-04-19 05:10 | 40.25435 | -111.75347 | 5531 ft | 86 kts | 339° |
| 2026-04-19 05:10 | 40.25999 | -111.75626 | 5689 ft | 88 kts | 340° |
| 2026-04-19 05:10 | 40.26567 | -111.75933 | 5865 ft | 89 kts | 342° |
| 2026-04-19 05:10 | 40.27168 | -111.76156 | 6006 ft | 95 kts | 350° |
| 2026-04-19 05:11 | 40.27851 | -111.76374 | 5995 ft | 104 kts | 351° |
| 2026-04-19 05:11 | 40.28511 | -111.76596 | 5989 ft | 92 kts | 351° |
| 2026-04-19 05:11 | 40.29103 | -111.76791 | 5987 ft | 83 kts | 350° |
| 2026-04-19 05:11 | 40.29639 | -111.76997 | 5996 ft | 82 kts | 340° |
| 2026-04-19 05:12 | 40.30185 | -111.77302 | 6009 ft | 90 kts | 340° |
| 2026-04-19 05:12 | 40.30785 | -111.77627 | 6008 ft | 97 kts | 340° |
| 2026-04-19 05:12 | 40.31430 | -111.77948 | 6009 ft | 101 kts | 337° |
| 2026-04-19 05:12 | 40.32032 | -111.78441 | 5974 ft | 106 kts | 339° |
| 2026-04-19 05:13 | 40.32728 | -111.78752 | 5987 ft | 103 kts | 340° |
| 2026-04-19 05:13 | 40.33413 | -111.79045 | 5990 ft | 104 kts | 343° |
| 2026-04-19 05:13 | 40.34099 | -111.79326 | 5982 ft | 103 kts | 343° |
| 2026-04-19 05:13 | 40.34778 | -111.79606 | 5990 ft | 102 kts | 343° |
| 2026-04-19 05:14 | 40.35455 | -111.79880 | 5986 ft | 101 kts | 343° |
| 2026-04-19 05:14 | 40.36131 | -111.80143 | 5994 ft | 101 kts | 343° |
| 2026-04-19 05:14 | 40.36809 | -111.80396 | 5992 ft | 101 kts | 343° |
| 2026-04-19 05:14 | 40.37443 | -111.80774 | 5990 ft | 100 kts | 327° |
| 2026-04-19 05:15 | 40.38004 | -111.81312 | 5989 ft | 100 kts | 317° |
| 2026-04-19 05:15 | 40.38516 | -111.81934 | 5987 ft | 101 kts | 317° |
| 2026-04-19 05:15 | 40.38858 | -111.82345 | 5988 ft | 101 kts | 317° |
| 2026-04-19 05:15 | 40.39376 | -111.82964 | 5989 ft | 101 kts | 318° |
| 2026-04-19 05:16 | 40.39898 | -111.83594 | 5989 ft | 101 kts | 317° |
| 2026-04-19 05:16 | 40.40410 | -111.84209 | 5989 ft | 101 kts | 317° |
| 2026-04-19 05:16 | 40.40930 | -111.84831 | 5988 ft | 101 kts | 318° |
| 2026-04-19 05:16 | 40.41452 | -111.85454 | 5984 ft | 102 kts | 317° |
| 2026-04-19 05:17 | 40.41980 | -111.86081 | 5985 ft | 103 kts | 317° |
| 2026-04-19 05:17 | 40.42510 | -111.86710 | 5985 ft | 103 kts | 317° |
| 2026-04-19 05:17 | 40.42687 | -111.86920 | 5984 ft | 103 kts | 317° |
| 2026-04-19 05:18 | 40.43018 | -111.87319 | 5984 ft | 103 kts | 317° |
| 2026-04-19 05:18 | 40.43549 | -111.87952 | 5984 ft | 103 kts | 318° |
| 2026-04-19 05:18 | 40.44081 | -111.88584 | 5982 ft | 103 kts | 318° |
| 2026-04-19 05:18 | 40.44602 | -111.89231 | 5981 ft | 103 kts | 316° |
| 2026-04-19 05:19 | 40.45127 | -111.89877 | 5980 ft | 103 kts | 319° |
| 2026-04-19 05:19 | 40.45738 | -111.90370 | 5980 ft | 103 kts | 329° |
| 2026-04-19 05:19 | 40.46415 | -111.90631 | 5986 ft | 106 kts | 8° |
| 2026-04-19 05:19 | 40.47162 | -111.90464 | 5993 ft | 113 kts | 9° |
| 2026-04-19 05:20 | 40.47954 | -111.90283 | 5986 ft | 118 kts | 10° |
| 2026-04-19 05:20 | 40.48751 | -111.89996 | 5989 ft | 121 kts | 19° |
| 2026-04-19 05:20 | 40.49563 | -111.89679 | 5978 ft | 122 kts | 18° |
| 2026-04-19 05:20 | 40.50388 | -111.89422 | 5983 ft | 122 kts | 11° |
| 2026-04-19 05:21 | 40.51233 | -111.89255 | 5984 ft | 123 kts | 10° |
| 2026-04-19 05:21 | 40.52093 | -111.89159 | 5975 ft | 124 kts | 356° |
| 2026-04-19 05:21 | 40.52947 | -111.89305 | 5973 ft | 123 kts | 354° |
| 2026-04-19 05:21 | 40.53795 | -111.89452 | 5971 ft | 123 kts | 354° |
| 2026-04-19 05:22 | 40.54642 | -111.89555 | 5969 ft | 122 kts | 357° |
| 2026-04-19 05:22 | 40.55490 | -111.89644 | 5970 ft | 123 kts | 357° |
| 2026-04-19 05:22 | 40.56343 | -111.89735 | 5971 ft | 123 kts | 358° |
| 2026-04-19 05:22 | 40.57198 | -111.89807 | 5972 ft | 123 kts | 358° |
| 2026-04-19 05:23 | 40.58050 | -111.89869 | 5971 ft | 122 kts | 359° |
| 2026-04-19 05:23 | 40.58899 | -111.89921 | 5971 ft | 122 kts | 359° |
| 2026-04-19 05:23 | 40.59747 | -111.89975 | 5968 ft | 122 kts | 359° |
| 2026-04-19 05:23 | 40.60595 | -111.90028 | 5971 ft | 122 kts | 359° |
| 2026-04-19 05:24 | 40.61444 | -111.90078 | 5971 ft | 122 kts | 359° |
| 2026-04-19 05:24 | 40.62294 | -111.90117 | 5971 ft | 122 kts | 1° |
| 2026-04-19 05:24 | 40.63144 | -111.90131 | 5971 ft | 122 kts | 1° |
| 2026-04-19 05:24 | 40.63981 | -111.90143 | 5971 ft | 122 kts | 1° |
| 2026-04-19 05:25 | 40.64831 | -111.90155 | 5969 ft | 122 kts | 1° |
| 2026-04-19 05:25 | 40.65683 | -111.90172 | 5967 ft | 119 kts | 1° |
| 2026-04-19 05:25 | 40.66506 | -111.90188 | 5967 ft | 120 kts | 0° |
| 2026-04-19 05:25 | 40.67352 | -111.90220 | 5965 ft | 120 kts | 0° |
| 2026-04-19 05:26 | 40.68178 | -111.90251 | 5967 ft | 120 kts | 360° |
| 2026-04-19 05:26 | 40.69014 | -111.90307 | 5967 ft | 120 kts | 359° |
| 2026-04-19 05:26 | 40.69853 | -111.90362 | 5967 ft | 121 kts | 359° |
| 2026-04-19 05:26 | 40.70691 | -111.90417 | 5968 ft | 121 kts | 359° |
| 2026-04-19 05:27 | 40.71531 | -111.90474 | 5967 ft | 121 kts | 359° |
| 2026-04-19 05:27 | 40.72370 | -111.90528 | 5966 ft | 121 kts | 359° |
| 2026-04-19 05:27 | 40.73207 | -111.90580 | 5963 ft | 121 kts | 359° |
| 2026-04-19 05:27 | 40.74044 | -111.90634 | 5964 ft | 121 kts | 359° |
| 2026-04-19 05:28 | 40.74883 | -111.90694 | 5964 ft | 121 kts | 359° |
| 2026-04-19 05:28 | 40.75722 | -111.90750 | 5964 ft | 121 kts | 359° |
| 2026-04-19 05:28 | 40.76564 | -111.90802 | 5961 ft | 121 kts | 359° |
| 2026-04-19 05:28 | 40.77401 | -111.90855 | 5986 ft | 119 kts | 359° |
| 2026-04-19 05:29 | 40.78192 | -111.90913 | 6190 ft | 104 kts | 359° |
| 2026-04-19 05:29 | 40.78851 | -111.90956 | 6439 ft | 90 kts | 359° |
| 2026-04-19 05:29 | 40.79480 | -111.90988 | 6584 ft | 90 kts | 359° |
| 2026-04-19 05:29 | 40.80105 | -111.91022 | 6723 ft | 90 kts | 359° |
| 2026-04-19 05:30 | 40.80739 | -111.91059 | 6828 ft | 92 kts | 358° |
| 2026-04-19 05:30 | 40.81386 | -111.91100 | 6934 ft | 94 kts | 359° |
| 2026-04-19 05:30 | 40.82045 | -111.91141 | 7028 ft | 96 kts | 359° |
| 2026-04-19 05:30 | 40.82717 | -111.91183 | 7117 ft | 97 kts | 1° |
| 2026-04-19 05:31 | 40.83401 | -111.91144 | 7214 ft | 100 kts | 4° |
| 2026-04-19 05:31 | 40.84095 | -111.91101 | 7327 ft | 101 kts | 4° |
| 2026-04-19 05:31 | 40.84793 | -111.91009 | 7437 ft | 101 kts | 12° |
| 2026-04-19 05:31 | 40.85504 | -111.90872 | 7491 ft | 108 kts | 11° |
| 2026-04-19 05:32 | 40.86276 | -111.90713 | 7502 ft | 117 kts | 11° |
| 2026-04-19 05:32 | 40.87105 | -111.90537 | 7499 ft | 124 kts | 11° |
| 2026-04-19 05:32 | 40.87967 | -111.90348 | 7498 ft | 127 kts | 11° |
| 2026-04-19 05:32 | 40.88844 | -111.90118 | 7498 ft | 129 kts | 13° |
| 2026-04-19 05:33 | 40.89722 | -111.89865 | 7495 ft | 129 kts | 14° |
| 2026-04-19 05:33 | 40.90616 | -111.89754 | 7492 ft | 129 kts | 3° |
| 2026-04-19 05:33 | 40.91515 | -111.89704 | 7489 ft | 130 kts | 3° |
| 2026-04-19 05:33 | 40.92419 | -111.89657 | 7491 ft | 129 kts | 2° |
| 2026-04-19 05:34 | 40.93320 | -111.89621 | 7487 ft | 129 kts | 359° |
| 2026-04-19 05:34 | 40.94214 | -111.89687 | 7488 ft | 129 kts | 355° |
| 2026-04-19 05:34 | 40.94969 | -111.90249 | 7482 ft | 127 kts | 306° |
| 2026-04-19 05:34 | 40.95565 | -111.91135 | 7492 ft | 129 kts | 309° |
| 2026-04-19 05:35 | 40.96175 | -111.92016 | 7490 ft | 130 kts | 311° |
| 2026-04-19 05:35 | 40.96811 | -111.92864 | 7493 ft | 130 kts | 313° |
| 2026-04-19 05:35 | 40.97454 | -111.93693 | 7491 ft | 132 kts | 312° |
| 2026-04-19 05:35 | 40.98115 | -111.94534 | 7491 ft | 131 kts | 312° |
| 2026-04-19 05:36 | 40.98777 | -111.95373 | 7493 ft | 132 kts | 313° |
| 2026-04-19 05:36 | 40.99444 | -111.96215 | 7492 ft | 132 kts | 314° |
| 2026-04-19 05:36 | 41.00108 | -111.97056 | 7495 ft | 132 kts | 313° |
| 2026-04-19 05:36 | 41.00771 | -111.97893 | 7492 ft | 131 kts | 314° |
| 2026-04-19 05:37 | 41.01425 | -111.98722 | 7488 ft | 130 kts | 313° |
| 2026-04-19 05:37 | 41.02073 | -111.99542 | 7489 ft | 129 kts | 313° |
| 2026-04-19 05:37 | 41.02726 | -112.00370 | 7488 ft | 130 kts | 313° |
| 2026-04-19 05:37 | 41.03377 | -112.01192 | 7490 ft | 129 kts | 313° |
| 2026-04-19 05:38 | 41.04025 | -112.02014 | 7493 ft | 128 kts | 314° |
| 2026-04-19 05:38 | 41.04666 | -112.02827 | 7490 ft | 128 kts | 314° |
| 2026-04-19 05:38 | 41.05312 | -112.03646 | 7491 ft | 129 kts | 313° |
| 2026-04-19 05:38 | 41.05902 | -112.04525 | 7478 ft | 127 kts | 293° |
| 2026-04-19 05:39 | 41.06074 | -112.05628 | 7479 ft | 121 kts | 262° |
| 2026-04-19 05:39 | 41.05941 | -112.06708 | 7487 ft | 119 kts | 258° |
| 2026-04-19 05:39 | 41.05847 | -112.07804 | 7490 ft | 120 kts | 261° |
| 2026-04-19 05:39 | 41.05786 | -112.08905 | 7472 ft | 120 kts | 261° |
| 2026-04-19 05:40 | 41.05758 | -112.10024 | 7403 ft | 122 kts | 265° |
| 2026-04-19 05:40 | 41.05769 | -112.11162 | 7319 ft | 125 kts | 268° |
| 2026-04-19 05:40 | 41.05800 | -112.12302 | 7277 ft | 123 kts | 269° |
| 2026-04-19 05:40 | 41.05903 | -112.13444 | 7221 ft | 124 kts | 277° |
| 2026-04-19 05:41 | 41.06102 | -112.14547 | 7180 ft | 125 kts | 283° |
| 2026-04-19 05:41 | 41.06360 | -112.15658 | 7112 ft | 126 kts | 288° |
| 2026-04-19 05:41 | 41.06654 | -112.16708 | 7165 ft | 120 kts | 288° |
| 2026-04-19 05:41 | 41.06949 | -112.17732 | 7172 ft | 120 kts | 287° |
| 2026-04-19 05:42 | 41.07243 | -112.18778 | 7170 ft | 123 kts | 290° |
| 2026-04-19 05:42 | 41.07605 | -112.19806 | 7198 ft | 122 kts | 293° |
| 2026-04-19 05:42 | 41.07979 | -112.20825 | 7183 ft | 125 kts | 294° |
| 2026-04-19 05:42 | 41.08399 | -112.21804 | 7187 ft | 126 kts | 297° |
| 2026-04-19 05:43 | 41.08837 | -112.22806 | 7172 ft | 127 kts | 298° |
| 2026-04-19 05:43 | 41.09327 | -112.23786 | 7159 ft | 127 kts | 306° |
| 2026-04-19 05:43 | 41.09889 | -112.24673 | 7185 ft | 125 kts | 310° |
| 2026-04-19 05:43 | 41.10470 | -112.25542 | 7177 ft | 127 kts | 311° |
| 2026-04-19 05:44 | 41.11110 | -112.26365 | 7161 ft | 128 kts | 317° |
| 2026-04-19 05:44 | 41.11810 | -112.27111 | 7131 ft | 129 kts | 322° |
| 2026-04-19 05:44 | 41.12504 | -112.27828 | 7188 ft | 125 kts | 322° |
| 2026-04-19 05:44 | 41.13205 | -112.28515 | 7192 ft | 126 kts | 323° |
| 2026-04-19 05:45 | 41.13920 | -112.29192 | 7189 ft | 127 kts | 325° |
| 2026-04-19 05:45 | 41.14692 | -112.29773 | 7195 ft | 127 kts | 336° |
| 2026-04-19 05:45 | 41.15517 | -112.30216 | 7202 ft | 127 kts | 338° |
| 2026-04-19 05:45 | 41.16333 | -112.30653 | 7223 ft | 126 kts | 338° |
| 2026-04-19 05:46 | 41.17162 | -112.31077 | 7213 ft | 128 kts | 340° |
| 2026-04-19 05:46 | 41.17998 | -112.31460 | 7242 ft | 126 kts | 341° |
| 2026-04-19 05:46 | 41.18844 | -112.31790 | 7255 ft | 127 kts | 348° |
| 2026-04-19 05:46 | 41.19729 | -112.31995 | 7196 ft | 132 kts | 355° |
| 2026-04-19 05:47 | 41.20638 | -112.32104 | 7187 ft | 130 kts | 355° |
| 2026-04-19 05:47 | 41.21538 | -112.32212 | 7182 ft | 131 kts | 356° |
| 2026-04-19 05:47 | 41.22440 | -112.32282 | 7194 ft | 128 kts | 359° |
| 2026-04-19 05:47 | 41.23325 | -112.32259 | 7209 ft | 127 kts | 4° |
| 2026-04-19 05:48 | 41.24215 | -112.32176 | 7191 ft | 129 kts | 5° |
| 2026-04-19 05:48 | 41.25078 | -112.32042 | 7241 ft | 125 kts | 8° |
| 2026-04-19 05:48 | 41.25946 | -112.31853 | 7227 ft | 127 kts | 12° |
| 2026-04-19 05:48 | 41.26812 | -112.31583 | 7227 ft | 127 kts | 15° |
| 2026-04-19 05:49 | 41.27662 | -112.31240 | 7208 ft | 129 kts | 21° |
| 2026-04-19 05:49 | 41.28486 | -112.30737 | 7123 ft | 133 kts | 40° |
| 2026-04-19 05:49 | 41.28942 | -112.29779 | 6985 ft | 118 kts | 88° |
| 2026-04-19 05:49 | 41.28781 | -112.28762 | 6843 ft | 113 kts | 114° |
| 2026-04-19 05:50 | 41.28496 | -112.27791 | 6730 ft | 113 kts | 115° |
| 2026-04-19 05:50 | 41.28198 | -112.26805 | 6572 ft | 116 kts | 114° |
| 2026-04-19 05:50 | 41.27898 | -112.25816 | 6436 ft | 115 kts | 115° |
| 2026-04-19 05:50 | 41.27585 | -112.24844 | 6311 ft | 115 kts | 115° |
| 2026-04-19 05:51 | 41.27290 | -112.23855 | 6164 ft | 115 kts | 113° |
| 2026-04-19 05:51 | 41.26999 | -112.22865 | 6054 ft | 115 kts | 114° |
| 2026-04-19 05:51 | 41.26702 | -112.21878 | 5991 ft | 117 kts | 115° |
| 2026-04-19 05:51 | 41.26388 | -112.20867 | 5950 ft | 119 kts | 113° |
| 2026-04-19 05:52 | 41.26047 | -112.19872 | 5931 ft | 118 kts | 118° |
| 2026-04-19 05:52 | 41.25690 | -112.18877 | 5861 ft | 121 kts | 116° |
| 2026-04-19 05:52 | 41.25343 | -112.17878 | 5834 ft | 120 kts | 116° |
| 2026-04-19 05:52 | 41.25000 | -112.16881 | 5819 ft | 118 kts | 116° |
| 2026-04-19 05:53 | 41.24659 | -112.15891 | 5788 ft | 118 kts | 116° |
| 2026-04-19 05:53 | 41.24314 | -112.14900 | 5773 ft | 117 kts | 116° |
| 2026-04-19 05:53 | 41.23978 | -112.13926 | 5798 ft | 114 kts | 116° |
| 2026-04-19 05:53 | 41.23640 | -112.12979 | 5790 ft | 113 kts | 117° |
| 2026-04-19 05:54 | 41.23290 | -112.12032 | 5801 ft | 115 kts | 115° |
| 2026-04-19 05:54 | 41.22934 | -112.11085 | 5819 ft | 116 kts | 115° |
| 2026-04-19 05:54 | 41.22580 | -112.10140 | 5759 ft | 110 kts | 116° |
| 2026-04-19 05:54 | 41.22233 | -112.09256 | 5748 ft | 106 kts | 115° |
| 2026-04-19 05:55 | 41.21891 | -112.08365 | 5702 ft | 109 kts | 115° |
| 2026-04-19 05:55 | 41.21552 | -112.07445 | 5578 ft | 110 kts | 115° |
| 2026-04-19 05:55 | 41.21205 | -112.06583 | 5440 ft | 104 kts | 118° |
| 2026-04-19 05:55 | 41.20874 | -112.05794 | 5448 ft | 88 kts | 118° |
| 2026-04-19 05:56 | 41.20562 | -112.05074 | 5393 ft | 95 kts | 120° |
| 2026-04-19 05:56 | 41.20221 | -112.04307 | 5341 ft | 95 kts | 130° |
| 2026-04-19 05:56 | 41.19657 | -112.04047 | 5311 ft | 86 kts | 168° |
| 2026-04-19 05:56 | 41.19014 | -112.03988 | 5111 ft | 91 kts | 167° |
| 2026-04-19 05:57 | 41.18526 | -112.03513 | 5028 ft | 85 kts | 122° |
| 2026-04-19 05:57 | 41.18429 | -112.02835 | 4731 ft | 80 kts | 73° |
| 2026-04-19 05:57 | 41.18693 | -112.02236 | 4516 ft | 69 kts | 45° |
| 2026-04-19 05:57 | 41.18997 | -112.01836 | 4452 ft | 52 kts | 46° |
| 2026-04-19 05:58 | 41.19202 | -112.01563 | 4447 ft | 34 kts | 46° |
| 2026-04-19 05:58 | 41.19289 | -112.01443 | 4447 ft | 12 kts | 44° |
| 2026-04-19 05:58 | 41.19342 | -112.01363 | 4447 ft | 22 kts | 37° |
| 2026-04-19 05:58 | 41.19465 | -112.01219 | 4448 ft | 24 kts | 45° |
| 2026-04-19 05:59 | 41.19487 | -112.01066 | 4446 ft | 18 kts | 132° |
| 2026-04-19 05:59 | 41.19396 | -112.01032 | 4446 ft | 13 kts | 220° |
| 2026-04-19 05:59 | 41.19298 | -112.01050 | 4447 ft | 7 kts | 176° |
| 2026-04-19 05:59 | 41.19238 | -112.01033 | 4448 ft | 4 kts | 129° |
| 2026-04-19 06:00 | 41.19239 | -112.01014 | 4448 ft | 2 kts | 15° |
| 2026-04-19 06:00 | 41.19244 | -112.01013 | 4447 ft | 0 kts | 6° |